Waunakee, Wisconsin
Current Conditions -  °F | °C
As of 6:35 AM on Monday 20 Oct 2014 (Local Time) from KC29 Reporting Station
Scattered Clouds Scattered Clouds  
Wind Chill: 50°   Ceiling: Unl
Heat Index: 50°   Visibility: 10mi
Dew Point: 44°   Wind: 9mph
Humidity: 78%   Direction: 310°NW
Pressure: 29.83"   Gusts: NA
Location:  43.19°N, 89.46°W
Report Text: KC29 201135Z AUTO 31008KT 10SM SCT050 10/07 A2983 RMK AO1 T01010065
Loading
Personal Weather Stations






























Interactive Weather Map
Tropical Storm Tracking
New forecast layout! Learn more

10-Day Weather Forecast

Advertisements
Track Severe Weather on mobile